createdAt,value
2023-05-16T00:01:08.222Z,12.72
2023-05-16T00:03:37.045Z,12.77
2023-05-16T00:06:05.249Z,12.83
2023-05-16T00:08:33.198Z,12.92
2023-05-16T00:11:01.510Z,13.01
2023-05-16T00:13:30.556Z,13.02
2023-05-16T00:16:02.544Z,13.07
2023-05-16T00:18:31.988Z,13.10
2023-05-16T00:21:00.170Z,13.07
2023-05-16T00:23:28.128Z,12.95
2023-05-16T00:25:56.123Z,12.81
2023-05-16T00:28:24.253Z,12.76
2023-05-16T00:30:52.047Z,12.78
2023-05-16T00:33:20.015Z,12.77
2023-05-16T00:35:49.194Z,12.76
2023-05-16T00:38:18.965Z,12.71
2023-05-16T00:40:47.267Z,12.73
2023-05-16T00:43:15.117Z,12.58
2023-05-16T00:45:43.047Z,12.40
2023-05-16T00:48:12.644Z,12.28
2023-05-16T00:50:41.146Z,12.30
2023-05-16T00:53:10.417Z,12.39
2023-05-16T00:55:39.046Z,12.47
2023-05-16T00:58:09.988Z,12.59
2023-05-16T01:00:37.944Z,12.54
2023-05-16T01:03:07.058Z,12.47
2023-05-16T01:05:35.438Z,12.33
2023-05-16T01:08:03.310Z,12.13
2023-05-16T01:10:54.002Z,12.20
2023-05-16T01:13:30.125Z,12.16
2023-05-16T01:16:08.650Z,12.12
2023-05-16T01:18:44.326Z,12.11
2023-05-16T01:21:19.753Z,12.08
2023-05-16T01:23:57.278Z,12.04
2023-05-16T01:26:28.756Z,11.97
2023-05-16T01:28:57.279Z,11.97
2023-05-16T01:31:25.555Z,12.00
2023-05-16T01:33:53.609Z,11.98
2023-05-16T01:36:26.523Z,12.05
2023-05-16T01:39:03.420Z,12.13
2023-05-16T01:41:42.583Z,12.17
2023-05-16T01:44:18.880Z,12.24
2023-05-16T01:46:48.619Z,12.39
2023-05-16T01:49:22.135Z,12.53
2023-05-16T01:51:53.180Z,12.59
2023-05-16T01:54:25.387Z,12.60
2023-05-16T01:56:56.030Z,12.60
2023-05-16T01:59:26.006Z,12.64
2023-05-16T02:01:55.739Z,12.60
2023-05-16T02:04:24.334Z,12.70
2023-05-16T02:06:52.435Z,12.73
2023-05-16T02:09:20.501Z,12.76
2023-05-16T02:11:48.540Z,12.80
2023-05-16T02:14:17.850Z,12.61
2023-05-16T02:16:45.789Z,12.60
2023-05-16T02:19:13.740Z,12.67
2023-05-16T02:21:41.663Z,12.69
2023-05-16T02:24:09.591Z,12.72
2023-05-16T02:26:37.506Z,12.71
2023-05-16T02:29:07.102Z,12.72
2023-05-16T02:31:36.512Z,12.68
2023-05-16T02:34:04.508Z,12.68
2023-05-16T02:36:34.317Z,12.68
2023-05-16T02:39:02.304Z,12.69
2023-05-16T02:41:30.153Z,12.66
2023-05-16T02:43:58.095Z,12.58
2023-05-16T02:46:28.378Z,12.56
2023-05-16T02:48:58.108Z,12.47
2023-05-16T02:51:27.499Z,12.45
2023-05-16T02:53:57.101Z,12.37
2023-05-16T02:56:25.119Z,12.41
2023-05-16T02:58:54.559Z,12.43
2023-05-16T03:01:22.567Z,12.11
2023-05-16T03:03:51.056Z,12.42
2023-05-16T03:06:20.347Z,12.38
2023-05-16T03:08:48.189Z,12.36
2023-05-16T03:11:20.860Z,12.31
2023-05-16T03:13:48.994Z,12.36
2023-05-16T03:16:17.087Z,12.30
2023-05-16T03:18:45.215Z,12.29
2023-05-16T03:21:13.479Z,12.31
2023-05-16T03:23:42.682Z,12.38
2023-05-16T03:26:10.564Z,12.40
2023-05-16T03:28:38.755Z,12.43
2023-05-16T03:31:06.968Z,12.45
2023-05-16T03:33:35.120Z,12.47
2023-05-16T03:36:03.410Z,12.53
2023-05-16T03:38:31.458Z,12.58
2023-05-16T03:41:01.289Z,12.60
2023-05-16T03:43:29.261Z,12.56
2023-05-16T03:45:57.263Z,12.54
2023-05-16T03:48:25.325Z,12.54
2023-05-16T03:50:53.143Z,12.52
2023-05-16T03:53:21.088Z,12.51
2023-05-16T03:55:49.114Z,12.46
2023-05-16T03:58:18.511Z,12.43
2023-05-16T04:00:46.883Z,12.41
2023-05-16T04:03:14.993Z,12.39
2023-05-16T04:05:43.379Z,12.36
2023-05-16T04:08:11.423Z,12.42
2023-05-16T04:10:39.269Z,12.33
2023-05-16T04:13:07.251Z,12.12
2023-05-16T04:15:36.521Z,12.16
2023-05-16T04:18:05.069Z,12.13
2023-05-16T04:20:33.210Z,12.23
2023-05-16T04:23:01.126Z,12.28
2023-05-16T04:25:29.263Z,12.30
2023-05-16T04:27:57.399Z,12.34
2023-05-16T04:30:25.386Z,12.47
2023-05-16T04:32:55.074Z,12.46
2023-05-16T04:35:23.377Z,12.36
2023-05-16T04:37:51.389Z,12.39
2023-05-16T04:40:19.363Z,12.56
2023-05-16T04:42:47.931Z,12.73
2023-05-16T04:45:16.126Z,12.82
2023-05-16T04:47:44.105Z,12.90
2023-05-16T04:50:13.585Z,12.94
2023-05-16T04:52:41.577Z,12.98
2023-05-16T04:55:10.891Z,13.06
2023-05-16T04:57:38.791Z,13.13
2023-05-16T05:00:10.290Z,13.05
2023-05-16T05:02:38.662Z,13.01
2023-05-16T05:05:08.389Z,13.10
2023-05-16T05:07:37.817Z,13.22
2023-05-16T05:10:07.698Z,13.25
2023-05-16T05:12:36.356Z,13.20
2023-05-16T05:15:04.715Z,13.20
2023-05-16T05:17:32.777Z,13.14
2023-05-16T05:20:02.856Z,13.19
2023-05-16T05:22:31.205Z,13.11
2023-05-16T05:25:00.478Z,13.12
2023-05-16T05:27:28.686Z,13.27
2023-05-16T05:29:56.709Z,13.34
2023-05-16T05:32:24.656Z,13.38
2023-05-16T05:34:52.938Z,13.39
2023-05-16T05:37:21.145Z,13.62
2023-05-16T05:39:48.984Z,13.91
2023-05-16T05:42:18.280Z,14.11
2023-05-16T05:44:46.160Z,14.24
2023-05-16T05:47:14.472Z,14.31
2023-05-16T05:49:42.426Z,14.41
2023-05-16T05:52:10.629Z,14.35
2023-05-16T05:54:38.707Z,14.42
2023-05-16T05:57:06.954Z,14.53
2023-05-16T05:59:36.824Z,14.64
2023-05-16T06:02:05.220Z,14.69
2023-05-16T06:04:33.127Z,14.63
2023-05-16T06:07:01.094Z,14.66
2023-05-16T06:09:28.906Z,14.68
2023-05-16T06:11:56.911Z,14.78
2023-05-16T06:14:24.752Z,14.82
2023-05-16T06:16:54.118Z,14.87
2023-05-16T06:19:22.281Z,14.93
2023-05-16T06:21:50.194Z,14.95
2023-05-16T06:24:18.091Z,14.97
2023-05-16T06:26:49.934Z,15.00
2023-05-16T06:29:18.172Z,15.11
2023-05-16T06:31:47.483Z,15.18
2023-05-16T06:34:16.850Z,15.27
2023-05-16T06:36:44.784Z,15.25
2023-05-16T06:39:12.711Z,15.13
2023-05-16T06:41:40.629Z,15.22
2023-05-16T06:44:12.705Z,15.18
2023-05-16T06:46:40.617Z,15.05
2023-05-16T06:49:08.536Z,14.93
2023-05-16T06:51:37.841Z,14.94
2023-05-16T06:54:05.760Z,15.04
2023-05-16T06:56:33.703Z,15.08
2023-05-16T06:59:02.513Z,15.09
2023-05-16T07:01:30.520Z,15.20
2023-05-16T07:03:58.602Z,15.27
2023-05-16T07:06:26.715Z,15.40
2023-05-16T07:08:56.094Z,15.62
2023-05-16T07:11:24.024Z,15.87
2023-05-16T07:13:52.036Z,16.09
2023-05-16T07:16:20.064Z,16.20
2023-05-16T07:18:48.133Z,16.30
2023-05-16T07:21:16.461Z,16.30
2023-05-16T07:23:44.328Z,16.24
2023-05-16T07:26:13.638Z,16.32
2023-05-16T07:28:42.048Z,16.42
2023-05-16T07:31:09.929Z,16.52
2023-05-16T07:33:37.899Z,16.53
2023-05-16T07:36:15.981Z,16.56
2023-05-16T07:38:44.670Z,16.67
2023-05-16T07:41:14.049Z,16.72
2023-05-16T07:43:41.975Z,16.71
2023-05-16T07:46:09.918Z,16.68
2023-05-16T07:48:38.247Z,16.58
2023-05-16T07:51:06.219Z,16.49
2023-05-16T07:53:34.633Z,16.40
2023-05-16T07:56:02.539Z,16.35
2023-05-16T07:58:32.025Z,16.37
2023-05-16T08:01:00.372Z,16.43
2023-05-16T08:03:28.529Z,16.48
2023-05-16T08:05:56.786Z,16.50
2023-05-16T08:08:24.703Z,16.44
2023-05-16T08:10:52.652Z,16.37
2023-05-16T08:13:20.629Z,16.48
2023-05-16T08:15:49.991Z,16.49
2023-05-16T08:18:20.679Z,16.54
2023-05-16T08:20:50.155Z,16.60
2023-05-16T08:23:18.104Z,16.65
2023-05-16T08:25:46.166Z,16.63
2023-05-16T08:28:14.080Z,16.60
2023-05-16T08:30:43.368Z,16.52
2023-05-16T08:33:13.593Z,16.45
2023-05-16T08:35:43.596Z,16.41
2023-05-16T08:38:11.546Z,16.40
2023-05-16T08:40:40.814Z,16.40
2023-05-16T08:43:08.960Z,16.42
2023-05-16T08:45:37.023Z,16.43
2023-05-16T08:48:09.489Z,16.42
2023-05-16T08:50:39.804Z,16.39
2023-05-16T08:53:10.369Z,16.39
2023-05-16T08:55:39.526Z,16.34
2023-05-16T08:58:07.647Z,16.36
2023-05-16T09:00:36.641Z,16.39
2023-05-16T09:03:05.990Z,16.43
2023-05-16T09:05:34.868Z,16.46
2023-05-16T09:08:04.170Z,16.47
2023-05-16T09:10:32.107Z,16.50
2023-05-16T09:12:59.954Z,16.48
2023-05-16T09:15:33.546Z,16.53
2023-05-16T09:18:03.013Z,16.53
2023-05-16T09:20:31.293Z,16.48
2023-05-16T09:23:00.934Z,16.42
2023-05-16T09:25:32.610Z,16.44
2023-05-16T09:28:03.689Z,16.44
2023-05-16T09:30:37.059Z,16.42
2023-05-16T09:33:07.765Z,16.41
2023-05-16T09:35:45.095Z,16.38
2023-05-16T09:38:17.484Z,16.38
2023-05-16T09:40:47.535Z,16.41
2023-05-16T09:43:18.034Z,16.48
2023-05-16T09:45:48.698Z,16.51
2023-05-16T09:48:18.430Z,16.53
2023-05-16T09:50:52.877Z,16.50
2023-05-16T09:53:27.881Z,16.48
2023-05-16T09:56:07.869Z,16.51
2023-05-16T09:58:37.192Z,16.60
2023-05-16T10:01:05.630Z,16.74
2023-05-16T10:03:36.000Z,16.84
2023-05-16T10:06:05.867Z,16.81
2023-05-16T10:08:36.497Z,16.75
2023-05-16T10:11:07.192Z,16.70
2023-05-16T10:13:37.711Z,16.66
2023-05-16T10:16:08.977Z,16.64
2023-05-16T10:18:38.116Z,16.68
2023-05-16T10:21:10.427Z,16.65
2023-05-16T10:23:43.020Z,16.66
2023-05-16T10:26:14.796Z,16.73
2023-05-16T10:28:43.474Z,16.75
2023-05-16T10:31:12.046Z,16.70
2023-05-16T10:33:41.024Z,16.70
2023-05-16T10:36:10.983Z,16.71
2023-05-16T10:38:39.800Z,16.76
2023-05-16T10:41:08.460Z,16.88
2023-05-16T10:43:37.826Z,17.05
2023-05-16T10:46:09.744Z,17.11
2023-05-16T10:48:39.616Z,17.12
2023-05-16T10:51:37.583Z,17.06
2023-05-16T10:54:07.789Z,16.94
2023-05-16T10:56:36.342Z,16.89
2023-05-16T10:59:05.910Z,16.84
2023-05-16T11:01:35.171Z,16.85
2023-05-16T11:04:11.508Z,16.86
2023-05-16T11:06:48.165Z,16.90
2023-05-16T11:09:25.461Z,16.90
2023-05-16T11:12:02.721Z,16.83
2023-05-16T11:14:39.438Z,16.74
2023-05-16T11:17:13.040Z,16.73
2023-05-16T11:19:43.813Z,16.65
2023-05-16T11:22:17.075Z,16.58
2023-05-16T11:24:53.458Z,16.48
2023-05-16T11:27:24.464Z,16.36
2023-05-16T11:29:54.373Z,16.34
2023-05-16T11:32:23.979Z,16.31
2023-05-16T11:34:54.465Z,16.26
2023-05-16T11:37:22.901Z,16.23
2023-05-16T11:39:51.248Z,16.21
2023-05-16T11:42:19.334Z,16.18
2023-05-16T11:44:47.426Z,16.15
2023-05-16T11:47:16.996Z,16.12
2023-05-16T11:49:45.465Z,16.10
2023-05-16T11:52:14.543Z,16.02
2023-05-16T11:54:43.281Z,15.96
2023-05-16T11:57:11.331Z,15.93
2023-05-16T11:59:39.683Z,15.88
2023-05-16T12:02:09.736Z,15.85
2023-05-16T12:04:39.535Z,15.79
2023-05-16T12:07:07.619Z,15.73
2023-05-16T12:09:35.596Z,15.74
2023-05-16T12:12:06.307Z,15.77
2023-05-16T12:14:34.765Z,15.69
2023-05-16T12:17:04.665Z,15.69
2023-05-16T12:19:33.055Z,15.68
2023-05-16T12:22:02.762Z,15.66
2023-05-16T12:24:31.960Z,15.69
2023-05-16T12:27:00.031Z,15.68
2023-05-16T12:29:28.027Z,15.62
2023-05-16T12:31:55.915Z,15.61
2023-05-16T12:34:24.299Z,15.62
2023-05-16T12:36:53.944Z,15.58
2023-05-16T12:39:24.124Z,15.54
2023-05-16T12:41:52.280Z,15.44
2023-05-16T12:44:20.644Z,15.51
2023-05-16T12:46:51.541Z,15.46
2023-05-16T12:49:21.611Z,15.45
2023-05-16T12:51:51.025Z,15.54
2023-05-16T12:54:19.375Z,15.66
2023-05-16T12:56:48.645Z,15.67
2023-05-16T12:59:16.696Z,15.61
2023-05-16T13:01:46.383Z,15.58
2023-05-16T13:04:19.049Z,15.59
2023-05-16T13:06:57.356Z,15.63
2023-05-16T13:09:30.356Z,15.56
2023-05-16T13:12:01.596Z,15.50
2023-05-16T13:14:31.720Z,15.45
2023-05-16T13:16:59.635Z,15.36
2023-05-16T13:19:27.617Z,15.38
2023-05-16T13:21:56.132Z,15.35
2023-05-16T13:24:24.018Z,15.34
2023-05-16T13:26:51.947Z,15.32
2023-05-16T13:29:21.215Z,15.28
2023-05-16T13:31:49.206Z,15.23
2023-05-16T13:34:17.243Z,15.27
2023-05-16T13:39:18.354Z,15.31
2023-05-16T13:41:48.580Z,15.27
2023-05-16T13:44:16.978Z,15.28
2023-05-16T13:46:46.757Z,15.25
2023-05-16T13:49:14.783Z,15.27
2023-05-16T13:51:43.758Z,15.30
2023-05-16T13:54:11.772Z,15.29
2023-05-16T13:56:39.678Z,15.27
2023-05-16T13:59:08.229Z,15.23
2023-05-16T14:01:37.532Z,15.18
2023-05-16T14:04:07.041Z,15.16
2023-05-16T14:06:34.999Z,15.14
2023-05-16T14:09:03.341Z,15.12
2023-05-16T14:11:31.330Z,15.08
2023-05-16T14:13:59.573Z,15.07
2023-05-16T14:16:27.732Z,15.07
2023-05-16T14:18:55.939Z,15.04
2023-05-16T14:21:25.258Z,15.02
2023-05-16T14:23:53.418Z,15.02
2023-05-16T14:26:25.201Z,15.02
2023-05-16T14:28:53.319Z,15.05
2023-05-16T14:31:21.294Z,15.04
2023-05-16T14:33:49.192Z,14.99
2023-05-16T14:36:17.150Z,14.99
2023-05-16T14:38:46.554Z,14.95
2023-05-16T14:41:14.540Z,14.87
2023-05-16T14:43:42.530Z,14.86
2023-05-16T14:46:11.022Z,14.82
2023-05-16T14:48:39.141Z,14.80
2023-05-16T14:51:07.889Z,14.75
2023-05-16T14:53:35.999Z,14.72
2023-05-16T14:56:06.125Z,14.71
2023-05-16T14:58:34.120Z,14.66
2023-05-16T15:01:02.073Z,14.57
2023-05-16T15:03:35.434Z,14.58
2023-05-16T15:06:11.810Z,14.63
2023-05-16T15:08:39.816Z,14.68
2023-05-16T15:11:09.218Z,14.58
2023-05-16T15:13:37.240Z,14.59
2023-05-16T15:16:05.837Z,14.78
2023-05-16T15:18:34.162Z,14.76
2023-05-16T15:21:02.390Z,14.80
2023-05-16T15:23:30.349Z,14.82
2023-05-16T15:25:59.323Z,14.84
2023-05-16T15:28:28.648Z,14.83
2023-05-16T15:30:56.756Z,14.85
2023-05-16T15:33:24.666Z,14.86
2023-05-16T15:35:53.033Z,14.85
2023-05-16T15:38:20.909Z,14.84
2023-05-16T15:40:55.053Z,14.86
2023-05-16T15:43:26.377Z,14.88
2023-05-16T15:45:55.703Z,14.84
2023-05-16T15:48:23.707Z,14.82
2023-05-16T15:50:51.571Z,14.81
2023-05-16T15:53:19.675Z,14.82
2023-05-16T15:55:47.981Z,14.88
2023-05-16T15:58:15.992Z,14.89
2023-05-16T16:00:45.596Z,14.86
2023-05-16T16:03:15.285Z,14.81
2023-05-16T16:05:43.322Z,14.71
2023-05-16T16:08:11.213Z,14.74
2023-05-16T16:10:39.060Z,14.77
2023-05-16T16:13:07.179Z,14.77
2023-05-16T16:15:35.997Z,14.73
2023-05-16T16:18:04.463Z,14.76
2023-05-16T16:20:34.087Z,14.78
2023-05-16T16:23:02.138Z,14.75
2023-05-16T16:25:30.369Z,14.78
2023-05-16T16:27:59.951Z,14.83
2023-05-16T16:30:28.275Z,14.87
2023-05-16T16:32:56.440Z,14.90
2023-05-16T16:35:26.269Z,14.92
2023-05-16T16:40:31.310Z,14.86
2023-05-16T16:42:59.715Z,14.88
2023-05-16T16:45:28.316Z,14.89
2023-05-16T16:47:56.648Z,14.83
2023-05-16T16:50:24.703Z,14.89
2023-05-16T16:52:53.707Z,14.82
2023-05-16T16:55:23.060Z,14.79
2023-05-16T16:57:51.028Z,14.77
2023-05-16T17:00:19.757Z,14.78
2023-05-16T17:02:47.953Z,14.82
2023-05-16T17:05:15.981Z,14.85
2023-05-16T17:07:44.170Z,14.85
2023-05-16T17:10:12.284Z,14.85
2023-05-16T17:12:48.908Z,14.81
2023-05-16T17:15:17.459Z,14.77
2023-05-16T17:17:45.904Z,14.72
2023-05-16T17:20:14.367Z,14.73
2023-05-16T17:22:42.277Z,14.74
2023-05-16T17:25:11.470Z,14.75
2023-05-16T17:27:40.611Z,14.73
2023-05-16T17:30:11.505Z,14.72
2023-05-16T17:32:39.931Z,14.71
2023-05-16T17:35:08.250Z,14.69
2023-05-16T17:37:36.472Z,14.69
2023-05-16T17:40:05.856Z,14.67
2023-05-16T17:42:33.821Z,14.65
2023-05-16T17:45:04.407Z,14.66
2023-05-16T17:47:34.620Z,14.64
2023-05-16T17:50:02.690Z,14.54
2023-05-16T17:52:32.612Z,14.51
2023-05-16T17:55:00.602Z,14.49
2023-05-16T17:57:28.703Z,14.50
2023-05-16T17:59:56.720Z,14.48
2023-05-16T18:02:24.702Z,14.46
2023-05-16T18:04:54.008Z,14.42
2023-05-16T18:07:22.232Z,14.40
2023-05-16T18:09:50.308Z,14.37
2023-05-16T18:12:18.351Z,14.40
2023-05-16T18:14:46.300Z,14.45
2023-05-16T18:17:14.473Z,14.49
2023-05-16T18:19:42.568Z,14.53
2023-05-16T18:22:13.341Z,14.57
2023-05-16T18:24:41.413Z,14.53
2023-05-16T18:27:09.533Z,14.72
2023-05-16T18:29:37.504Z,14.72
2023-05-16T18:32:06.026Z,14.90
2023-05-16T18:34:34.120Z,14.94
2023-05-16T18:37:02.150Z,14.97
2023-05-16T18:39:31.792Z,15.00
2023-05-16T18:41:59.836Z,15.00
2023-05-16T18:44:27.762Z,14.90
2023-05-16T18:46:57.578Z,14.93
2023-05-16T18:49:26.030Z,14.86
2023-05-16T18:51:54.126Z,14.85
2023-05-16T18:54:23.335Z,14.86
2023-05-16T18:56:53.728Z,14.92
2023-05-16T18:59:21.618Z,14.92
2023-05-16T19:01:49.493Z,14.85
2023-05-16T19:04:17.579Z,14.81
2023-05-16T19:06:46.114Z,14.85
2023-05-16T19:09:14.195Z,14.83
2023-05-16T19:11:42.377Z,14.82
2023-05-16T19:14:11.672Z,14.83
2023-05-16T19:16:39.647Z,14.83
2023-05-16T19:19:08.351Z,14.65
2023-05-16T19:21:36.555Z,14.60
2023-05-16T19:24:04.929Z,14.48
2023-05-16T19:26:32.905Z,14.39
2023-05-16T19:29:00.816Z,14.37
2023-05-16T19:31:30.155Z,14.27
2023-05-16T19:33:58.024Z,14.27
2023-05-16T19:36:26.142Z,14.26
2023-05-16T19:38:54.051Z,14.18
2023-05-16T19:41:22.034Z,14.12
2023-05-16T19:43:49.960Z,14.04
2023-05-16T19:46:18.013Z,14.00
2023-05-16T19:48:47.603Z,14.00
2023-05-16T19:51:16.639Z,14.01
2023-05-16T19:53:47.398Z,14.05
2023-05-16T19:56:15.242Z,14.17
2023-05-16T19:58:43.821Z,14.17
2023-05-16T20:01:11.782Z,14.23
2023-05-16T20:03:39.946Z,14.25
2023-05-16T20:06:09.377Z,14.26
2023-05-16T20:08:37.395Z,14.27
2023-05-16T20:11:05.292Z,14.30
2023-05-16T20:13:33.746Z,14.33
2023-05-16T20:16:03.031Z,14.33
2023-05-16T20:18:31.036Z,14.30
2023-05-16T20:20:59.095Z,14.27
2023-05-16T20:23:28.500Z,14.28
2023-05-16T20:25:56.522Z,14.30
2023-05-16T20:28:24.470Z,14.30
2023-05-16T20:30:52.387Z,14.32
2023-05-16T20:33:20.315Z,14.36
2023-05-16T20:35:48.428Z,14.40
2023-05-16T20:38:16.743Z,14.37
2023-05-16T20:40:47.518Z,14.33
2023-05-16T20:43:15.535Z,14.29
2023-05-16T20:45:43.540Z,14.29
2023-05-16T20:48:11.471Z,14.28
2023-05-16T20:50:39.399Z,14.23
2023-05-16T20:53:07.389Z,14.24
2023-05-16T20:55:35.369Z,14.23
2023-05-16T20:58:04.691Z,14.21
2023-05-16T21:00:33.568Z,14.23
2023-05-16T21:03:01.668Z,14.17
2023-05-16T21:05:29.769Z,14.21
2023-05-16T21:07:57.781Z,14.21
2023-05-16T21:10:26.687Z,14.19
2023-05-16T21:12:54.628Z,14.21
2023-05-16T21:15:23.983Z,14.25
2023-05-16T21:17:52.269Z,14.28
2023-05-16T21:20:20.614Z,14.33
2023-05-16T21:22:48.702Z,14.35
2023-05-16T21:25:16.866Z,14.37
2023-05-16T21:27:44.850Z,14.41
2023-05-16T21:30:14.214Z,14.42
2023-05-16T21:32:43.603Z,14.45
2023-05-16T21:35:11.531Z,14.47
2023-05-16T21:37:39.647Z,14.43
2023-05-16T21:40:09.400Z,14.42
2023-05-16T21:42:37.571Z,14.42
2023-05-16T21:45:12.399Z,14.43
2023-05-16T21:47:40.549Z,14.44
2023-05-16T21:50:10.679Z,14.42
2023-05-16T21:52:38.774Z,14.43
2023-05-16T21:55:07.855Z,14.45
2023-05-16T21:57:35.940Z,14.47
2023-05-16T22:00:06.859Z,14.46
2023-05-16T22:02:36.436Z,14.46
2023-05-16T22:05:05.074Z,14.42
2023-05-16T22:07:34.505Z,14.41
2023-05-16T22:10:03.000Z,14.39
2023-05-16T22:12:31.054Z,14.40
2023-05-16T22:14:59.003Z,14.39
2023-05-16T22:17:27.033Z,14.38
2023-05-16T22:19:57.268Z,14.39
2023-05-16T22:22:25.271Z,14.40
2023-05-16T22:24:54.960Z,14.44
2023-05-16T22:27:22.910Z,14.47
2023-05-16T22:29:50.850Z,14.47
2023-05-16T22:32:18.762Z,14.51
2023-05-16T22:34:46.634Z,14.52
2023-05-16T22:37:14.591Z,14.50
2023-05-16T22:39:42.520Z,14.49
2023-05-16T22:42:11.869Z,14.47
2023-05-16T22:44:39.703Z,14.47
2023-05-16T22:47:08.048Z,14.46
2023-05-16T22:49:35.973Z,14.46
2023-05-16T22:52:05.757Z,14.46
2023-05-16T22:54:33.744Z,14.45
2023-05-16T22:57:01.798Z,14.45
2023-05-16T22:59:31.001Z,14.45
2023-05-16T23:01:59.034Z,14.43
2023-05-16T23:04:27.091Z,14.44
2023-05-16T23:06:55.070Z,14.45
2023-05-16T23:09:23.218Z,14.46
2023-05-16T23:11:51.251Z,14.47
2023-05-16T23:14:19.135Z,14.46
2023-05-16T23:16:48.398Z,14.46
2023-05-16T23:19:16.299Z,14.44
2023-05-16T23:21:44.512Z,14.36
2023-05-16T23:24:12.427Z,14.35
2023-05-16T23:26:40.435Z,14.31
2023-05-16T23:29:09.004Z,14.25
2023-05-16T23:31:38.975Z,14.25
2023-05-16T23:34:08.475Z,14.21
2023-05-16T23:36:36.923Z,14.19
2023-05-16T23:39:05.001Z,14.20
2023-05-16T23:41:32.988Z,14.24
2023-05-16T23:44:00.918Z,14.26
2023-05-16T23:46:28.910Z,14.29
2023-05-16T23:48:57.910Z,14.26
2023-05-16T23:51:31.162Z,14.33
2023-05-16T23:54:03.475Z,14.35
2023-05-16T23:56:32.818Z,14.34
2023-05-16T23:59:00.704Z,14.33
